Time;durP1;ratioP1;P1;durP2;ratioP2;P2;SDS_P1;SDS_P2;PMS_P1;PMS_P2;Temp;Humidity;BMP_temperature;BMP_pressure;BME280_temperature;BME280_humidity;BME280_pressure;Samples;Min_cycle;Max_cycle;Signal;HPM_P1;HPM_P2
2023/09/28 00:01:22;;;;;;;22.40;17.50;;;17.70;99.90;;;;;;5007793;28;20694;-71
2023/09/28 00:04:10;;;;;;;27.05;17.50;;;17.80;99.90;;;;;;4995836;28;20277;-72
2023/09/28 00:07:00;;;;;;;22.98;16.95;;;17.70;99.90;;;;;;4991715;28;20337;-70
2023/09/28 00:09:49;;;;;;;25.83;17.90;;;17.70;99.90;;;;;;5013083;28;20226;-71
2023/09/28 00:12:39;;;;;;;26.02;17.23;;;17.60;99.90;;;;;;4996136;28;20340;-72
2023/09/28 00:15:29;;;;;;;24.58;17.63;;;17.50;99.90;;;;;;5010028;28;20246;-71
2023/09/28 00:18:17;;;;;;;21.77;17.13;;;17.40;99.90;;;;;;4997567;28;20368;-70
2023/09/28 00:21:07;;;;;;;29.33;18.25;;;17.40;99.90;;;;;;4993144;28;20227;-71
2023/09/28 00:23:58;;;;;;;24.38;17.30;;;17.40;99.90;;;;;;4994933;28;20227;-71
2023/09/28 00:26:47;;;;;;;24.08;17.88;;;17.50;99.90;;;;;;5009088;28;20226;-72
2023/09/28 00:29:36;;;;;;;28.23;17.88;;;17.50;99.90;;;;;;4993854;28;20279;-70
2023/09/28 00:32:25;;;;;;;23.20;17.27;;;17.40;99.90;;;;;;5015540;28;20301;-70
2023/09/28 00:35:14;;;;;;;24.70;18.25;;;17.40;99.90;;;;;;5013863;28;20644;-70
2023/09/28 00:38:02;;;;;;;25.27;18.17;;;17.40;99.90;;;;;;4995276;28;20227;-70
2023/09/28 00:40:53;;;;;;;26.80;18.45;;;17.30;99.90;;;;;;5005199;28;20221;-71
2023/09/28 00:43:41;;;;;;;25.48;18.88;;;17.20;99.90;;;;;;5015776;28;20230;-72
2023/09/28 00:46:33;;;;;;;30.60;19.60;;;17.00;99.90;;;;;;4995986;28;20234;-72
2023/09/28 00:49:23;;;;;;;25.55;19.73;;;17.10;99.90;;;;;;5010629;28;20211;-69
2023/09/28 00:52:16;;;;;;;26.33;19.13;;;16.90;99.90;;;;;;5003276;28;20221;-72
2023/09/28 00:55:08;;;;;;;27.85;19.80;;;17.00;99.90;;;;;;5014931;28;20237;-71
2023/09/28 00:58:02;;;;;;;26.77;19.55;;;17.00;99.90;;;;;;4997564;28;20226;-72
2023/09/28 01:00:51;;;;;;;24.98;19.33;;;16.90;99.90;;;;;;5007450;28;20229;-71
2023/09/28 01:03:40;;;;;;;27.83;19.88;;;16.90;99.90;;;;;;4995886;28;20226;-71
2023/09/28 01:06:30;;;;;;;28.35;20.05;;;16.90;99.90;;;;;;4996072;28;20238;-70
2023/09/28 01:09:21;;;;;;;28.13;20.88;;;16.80;99.90;;;;;;4997085;28;21016;-70
2023/09/28 01:12:12;;;;;;;29.25;20.38;;;16.90;99.90;;;;;;5013151;28;20232;-72
2023/09/28 01:15:04;;;;;;;27.65;20.23;;;16.80;99.90;;;;;;4997331;28;20716;-69
2023/09/28 01:17:54;;;;;;;28.75;20.73;;;16.80;99.90;;;;;;5000663;28;20210;-71
2023/09/28 01:20:43;;;;;;;27.15;20.23;;;16.60;99.90;;;;;;4996898;28;20321;-71
2023/09/28 01:23:35;;;;;;;28.55;20.48;;;16.50;99.90;;;;;;4996683;28;20230;-70
2023/09/28 01:26:30;;;;;;;29.27;20.88;;;16.50;99.90;;;;;;4982836;28;20253;-71
2023/09/28 01:29:19;;;;;;;26.77;21.13;;;16.40;99.90;;;;;;4997989;28;20788;-70
2023/09/28 01:32:07;;;;;;;30.45;20.27;;;16.40;99.90;;;;;;5001652;28;20345;-71
2023/09/28 01:34:56;;;;;;;26.77;19.92;;;16.30;99.90;;;;;;4997814;28;20222;-70
2023/09/28 01:37:54;;;;;;;28.83;20.20;;;16.40;99.90;;;;;;5010046;28;20680;-71
2023/09/28 01:40:45;;;;;;;27.70;20.73;;;16.40;99.90;;;;;;5008165;28;20229;-71
2023/09/28 01:43:33;;;;;;;26.38;19.67;;;16.50;99.90;;;;;;5009032;28;20815;-71
2023/09/28 01:46:22;;;;;;;27.55;19.88;;;16.70;99.90;;;;;;5012800;28;20233;-71
2023/09/28 01:49:11;;;;;;;28.75;20.05;;;16.50;99.90;;;;;;4976511;28;20226;-71
2023/09/28 01:51:59;;;;;;;30.23;20.08;;;16.70;99.90;;;;;;4979645;28;20312;-70
2023/09/28 01:54:48;;;;;;;30.98;20.23;;;16.60;99.90;;;;;;4992518;28;20275;-72
2023/09/28 01:57:37;;;;;;;25.83;20.25;;;16.60;99.90;;;;;;4980186;28;20392;-70
2023/09/28 02:00:27;;;;;;;32.55;20.15;;;16.70;99.90;;;;;;4979033;28;20262;-71
2023/09/28 02:03:18;;;;;;;26.92;19.13;;;16.70;99.90;;;;;;4973622;28;20301;-70
2023/09/28 02:06:06;;;;;;;26.77;19.83;;;16.70;99.90;;;;;;4982666;28;20305;-71
2023/09/28 02:08:55;;;;;;;27.77;19.35;;;16.50;99.90;;;;;;4981859;28;20882;-71
2023/09/28 02:11:44;;;;;;;25.55;19.52;;;16.40;99.90;;;;;;4989940;28;20690;-72
2023/09/28 02:14:34;;;;;;;29.42;19.00;;;16.50;99.90;;;;;;4962439;28;20223;-72
2023/09/28 02:17:22;;;;;;;29.08;20.23;;;16.40;99.90;;;;;;4975893;28;20547;-71
2023/09/28 02:20:15;;;;;;;28.42;19.25;;;16.60;99.90;;;;;;4985945;28;20696;-72
2023/09/28 02:23:03;;;;;;;30.73;19.85;;;16.60;99.90;;;;;;4997307;28;20978;-72
2023/09/28 02:25:52;;;;;;;27.52;20.38;;;16.50;99.90;;;;;;5006781;28;20341;-71
2023/09/28 02:28:41;;;;;;;26.35;19.80;;;16.60;99.90;;;;;;4992719;28;20790;-72
2023/09/28 02:31:31;;;;;;;28.25;20.23;;;16.60;99.90;;;;;;4997318;28;20322;-69
2023/09/28 02:34:20;;;;;;;27.08;19.88;;;16.60;99.90;;;;;;4990887;28;20317;-71
2023/09/28 02:37:07;;;;;;;29.77;20.15;;;16.60;99.90;;;;;;4979360;28;20233;-70
2023/09/28 02:39:57;;;;;;;27.98;20.30;;;16.50;99.90;;;;;;4983247;28;20702;-69
2023/09/28 02:42:48;;;;;;;25.25;19.08;;;16.50;99.90;;;;;;4985293;28;20376;-70
2023/09/28 02:45:38;;;;;;;28.17;19.67;;;16.50;99.90;;;;;;4973795;28;20781;-70
2023/09/28 02:48:27;;;;;;;26.95;18.67;;;16.50;99.90;;;;;;4988233;28;20551;-71
2023/09/28 02:51:17;;;;;;;25.95;19.08;;;16.40;99.90;;;;;;4981985;28;20323;-69
2023/09/28 02:54:10;;;;;;;30.70;19.52;;;16.40;99.90;;;;;;4992382;28;20269;-70
2023/09/28 02:56:59;;;;;;;28.58;19.98;;;16.50;99.90;;;;;;4983149;28;20227;-69
2023/09/28 02:59:47;;;;;;;31.35;19.17;;;16.40;99.90;;;;;;4982126;28;20443;-69
2023/09/28 03:02:36;;;;;;;28.15;18.88;;;16.50;99.90;;;;;;4992737;28;20279;-71
2023/09/28 03:05:27;;;;;;;31.42;20.27;;;16.50;99.90;;;;;;4998120;28;20297;-68
2023/09/28 03:08:17;;;;;;;29.48;18.98;;;16.40;99.90;;;;;;4989815;28;20539;-68
2023/09/28 03:11:06;;;;;;;27.52;18.20;;;16.40;99.90;;;;;;4979874;28;20559;-69
2023/09/28 03:13:56;;;;;;;26.63;19.17;;;16.40;99.90;;;;;;4984743;28;20576;-70
2023/09/28 03:16:43;;;;;;;24.20;18.45;;;16.50;99.90;;;;;;4989866;28;20810;-70
2023/09/28 03:19:33;;;;;;;30.35;18.55;;;16.40;99.90;;;;;;4995678;28;20222;-70
2023/09/28 03:22:23;;;;;;;24.80;18.10;;;16.40;99.90;;;;;;4987076;28;20234;-69
2023/09/28 03:25:16;;;;;;;25.13;17.60;;;16.40;99.90;;;;;;4988897;28;20234;-71
2023/09/28 03:28:05;;;;;;;24.35;17.95;;;16.20;99.90;;;;;;4987185;28;20231;-71
2023/09/28 03:30:54;;;;;;;23.52;17.92;;;16.20;99.90;;;;;;4976584;28;20231;-71
2023/09/28 03:33:42;;;;;;;25.08;17.85;;;16.30;99.90;;;;;;4985751;28;20594;-72
2023/09/28 03:36:32;;;;;;;25.90;19.33;;;16.30;99.90;;;;;;4981751;28;20302;-70
2023/09/28 03:39:22;;;;;;;26.17;18.30;;;16.30;99.90;;;;;;4980914;28;20710;-72
2023/09/28 03:42:12;;;;;;;26.52;18.52;;;16.20;99.90;;;;;;4993843;28;20306;-71
2023/09/28 03:45:01;;;;;;;26.95;18.20;;;16.10;99.90;;;;;;4990619;28;20246;-71
2023/09/28 03:47:51;;;;;;;26.40;17.88;;;16.20;99.90;;;;;;4981097;28;20222;-71
2023/09/28 03:50:40;;;;;;;23.42;17.85;;;16.30;99.90;;;;;;4978444;28;20257;-70
2023/09/28 03:53:29;;;;;;;27.15;19.13;;;16.20;99.90;;;;;;4973441;28;20235;-72
2023/09/28 03:56:21;;;;;;;24.35;17.77;;;16.20;99.90;;;;;;4990277;28;20226;-71
2023/09/28 03:59:10;;;;;;;27.67;17.92;;;16.20;99.90;;;;;;4979829;28;20346;-72
2023/09/28 04:01:59;;;;;;;23.67;17.67;;;16.10;99.90;;;;;;4991798;28;20316;-71
2023/09/28 04:04:47;;;;;;;27.10;17.60;;;16.10;99.90;;;;;;4987821;28;20238;-72
2023/09/28 04:07:37;;;;;;;24.83;17.88;;;16.20;99.90;;;;;;4989051;28;20222;-72
2023/09/28 04:10:26;;;;;;;26.45;18.55;;;16.10;99.90;;;;;;4978306;28;20717;-71
2023/09/28 04:13:16;;;;;;;25.33;18.17;;;16.20;99.90;;;;;;4981380;28;20267;-72
2023/09/28 04:16:05;;;;;;;22.25;17.60;;;16.10;99.90;;;;;;4977105;28;20231;-71
2023/09/28 04:18:54;;;;;;;24.33;17.75;;;16.10;99.90;;;;;;4981373;28;20246;-73
2023/09/28 04:21:43;;;;;;;29.33;18.15;;;16.10;99.90;;;;;;4983405;28;20393;-72
2023/09/28 04:24:32;;;;;;;28.58;19.13;;;16.00;99.90;;;;;;4979241;28;20284;-70
2023/09/28 04:27:21;;;;;;;23.50;17.63;;;16.00;99.90;;;;;;4977818;28;20233;-72
2023/09/28 04:30:12;;;;;;;30.02;19.17;;;16.00;99.90;;;;;;4974057;28;20231;-72
2023/09/28 04:33:02;;;;;;;23.58;18.33;;;16.00;99.90;;;;;;4984152;28;20321;-73
2023/09/28 04:35:51;;;;;;;25.50;18.17;;;15.90;99.90;;;;;;4970151;28;20234;-70
2023/09/28 04:38:41;;;;;;;25.23;18.30;;;15.90;99.90;;;;;;4977949;28;20234;-71
2023/09/28 04:41:31;;;;;;;29.65;19.05;;;16.00;99.90;;;;;;4998262;28;20231;-71
2023/09/28 04:44:21;;;;;;;29.92;19.30;;;16.00;99.90;;;;;;4985423;28;20300;-71
2023/09/28 04:47:11;;;;;;;29.35;17.95;;;16.00;99.90;;;;;;4991101;28;20628;-72
2023/09/28 04:50:00;;;;;;;30.77;19.58;;;15.90;99.90;;;;;;4981760;28;20226;-71
2023/09/28 04:52:49;;;;;;;25.70;18.75;;;15.90;99.90;;;;;;4987193;28;20234;-73
2023/09/28 04:55:39;;;;;;;26.08;18.90;;;15.90;99.90;;;;;;4977260;28;20383;-72
2023/09/28 04:58:27;;;;;;;26.50;18.98;;;15.90;99.90;;;;;;4987275;28;20227;-72
2023/09/28 05:01:16;;;;;;;29.15;18.52;;;15.90;99.90;;;;;;4978948;28;20223;-71
2023/09/28 05:04:10;;;;;;;30.42;19.45;;;15.80;99.90;;;;;;4973407;28;20267;-72
2023/09/28 05:07:00;;;;;;;32.20;18.42;;;15.80;99.90;;;;;;4976947;28;20634;-72
2023/09/28 05:09:49;;;;;;;26.20;18.75;;;15.90;99.90;;;;;;4976411;28;20218;-73
2023/09/28 05:12:38;;;;;;;28.95;19.05;;;16.00;99.90;;;;;;4984819;28;20281;-73
2023/09/28 05:15:26;;;;;;;27.13;18.77;;;16.00;99.90;;;;;;4978401;28;20227;-73
2023/09/28 05:18:15;;;;;;;24.13;18.20;;;16.00;99.90;;;;;;4970987;28;20319;-73
2023/09/28 05:21:06;;;;;;;28.90;17.90;;;16.00;99.90;;;;;;4974739;28;20230;-71
2023/09/28 05:23:54;;;;;;;26.63;19.15;;;16.10;99.90;;;;;;4979718;28;20234;-73
2023/09/28 05:26:44;;;;;;;26.60;19.25;;;16.10;99.90;;;;;;4979088;28;20232;-72
2023/09/28 05:29:32;;;;;;;25.95;19.25;;;16.00;99.90;;;;;;4984176;28;20235;-71
2023/09/28 05:32:22;;;;;;;31.55;19.27;;;15.80;99.90;;;;;;4986255;28;20238;-71
2023/09/28 05:35:11;;;;;;;33.05;19.25;;;15.70;99.90;;;;;;4968279;28;20698;-70
2023/09/28 05:38:02;;;;;;;35.42;19.27;;;15.80;99.90;;;;;;4974928;28;20223;-70
2023/09/28 05:40:51;;;;;;;34.40;20.10;;;15.70;99.90;;;;;;4970640;28;20227;-70
2023/09/28 05:43:40;;;;;;;30.58;19.08;;;15.80;99.90;;;;;;4992283;28;20761;-71
2023/09/28 05:46:29;;;;;;;34.00;19.20;;;15.70;99.90;;;;;;4975039;28;20227;-70
2023/09/28 05:49:18;;;;;;;29.95;19.27;;;15.70;99.90;;;;;;4989205;28;20713;-72
2023/09/28 05:52:07;;;;;;;29.95;19.77;;;15.80;99.90;;;;;;4988286;28;20815;-70
2023/09/28 05:54:57;;;;;;;33.35;19.67;;;15.80;99.90;;;;;;4986228;28;20223;-69
2023/09/28 05:57:46;;;;;;;34.35;21.83;;;15.90;99.90;;;;;;4977801;28;20587;-73
2023/09/28 06:00:37;;;;;;;28.08;20.13;;;16.00;99.90;;;;;;4979148;28;20245;-72
2023/09/28 06:03:27;;;;;;;29.33;20.02;;;16.20;99.90;;;;;;4987047;28;20656;-70
2023/09/28 06:06:17;;;;;;;27.67;19.77;;;16.20;99.90;;;;;;4969036;28;20273;-70
2023/09/28 06:09:06;;;;;;;32.42;21.27;;;16.20;99.90;;;;;;4979980;28;20227;-71
2023/09/28 06:11:57;;;;;;;33.67;20.45;;;16.40;99.90;;;;;;4983441;28;20230;-73
2023/09/28 06:14:46;;;;;;;31.85;20.50;;;16.40;99.90;;;;;;4987117;28;20227;-71
2023/09/28 06:17:35;;;;;;;46.33;21.63;;;16.40;99.90;;;;;;4981019;28;20733;-73
2023/09/28 06:20:24;;;;;;;43.10;21.25;;;16.40;99.90;;;;;;4989140;28;20729;-70
2023/09/28 06:23:14;;;;;;;33.25;21.17;;;16.50;99.90;;;;;;4987885;28;20734;-71
2023/09/28 06:26:04;;;;;;;40.67;20.83;;;16.50;99.90;;;;;;4975916;28;20230;-71
2023/09/28 06:28:54;;;;;;;36.25;20.75;;;16.60;99.90;;;;;;4994841;28;20610;-73
2023/09/28 06:31:44;;;;;;;73.47;22.85;;;16.60;99.90;;;;;;4987573;28;20325;-75
2023/09/28 06:34:33;;;;;;;57.13;21.17;;;16.70;99.90;;;;;;4979265;28;20653;-72
2023/09/28 06:37:23;;;;;;;29.10;19.52;;;16.80;99.90;;;;;;4986375;28;20227;-72
2023/09/28 06:40:12;;;;;;;31.38;19.90;;;16.80;99.90;;;;;;4979757;28;20444;-73
2023/09/28 06:43:02;;;;;;;30.88;20.33;;;16.80;99.90;;;;;;4996342;28;20230;-73
2023/09/28 06:45:52;;;;;;;30.30;19.65;;;17.00;99.90;;;;;;4994600;28;20234;-77
2023/09/28 06:48:41;;;;;;;31.52;18.92;;;17.00;99.90;;;;;;4987965;28;20825;-74
2023/09/28 06:51:30;;;;;;;29.63;18.63;;;17.10;99.90;;;;;;4974811;28;20238;-72
2023/09/28 06:54:20;;;;;;;31.95;18.40;;;17.10;99.90;;;;;;5002112;28;20222;-72
2023/09/28 06:57:09;;;;;;;28.15;17.92;;;17.20;99.90;;;;;;5011258;28;20214;-72
2023/09/28 06:59:58;;;;;;;28.17;17.73;;;17.30;99.90;;;;;;5000113;28;20300;-71
2023/09/28 07:02:48;;;;;;;29.02;18.08;;;17.30;99.90;;;;;;4998890;28;20226;-71
2023/09/28 07:05:38;;;;;;;23.98;17.98;;;17.30;99.90;;;;;;5004219;28;20609;-69
2023/09/28 07:08:27;;;;;;;31.80;18.15;;;17.40;99.90;;;;;;4992128;28;20229;-70
2023/09/28 07:11:16;;;;;;;23.50;17.60;;;17.40;99.90;;;;;;4981722;28;20234;-72
2023/09/28 07:14:05;;;;;;;27.80;18.48;;;17.40;99.90;;;;;;4990681;28;20249;-73
2023/09/28 07:16:54;;;;;;;23.88;17.50;;;17.50;99.90;;;;;;4977110;28;20329;-73
2023/09/28 07:19:44;;;;;;;27.85;17.73;;;17.60;99.90;;;;;;4975096;28;20303;-72
2023/09/28 07:22:33;;;;;;;27.85;17.42;;;17.60;99.90;;;;;;4979982;28;20249;-74
2023/09/28 07:25:22;;;;;;;28.02;17.92;;;17.70;99.90;;;;;;4985821;28;20790;-73
2023/09/28 07:28:12;;;;;;;20.90;16.63;;;17.80;99.90;;;;;;4979316;28;20254;-72
2023/09/28 07:31:01;;;;;;;23.90;17.20;;;17.80;99.90;;;;;;4986957;28;22809;-73
2023/09/28 07:33:51;;;;;;;21.67;16.38;;;17.90;99.90;;;;;;4995753;28;20639;-74
2023/09/28 07:36:42;;;;;;;22.20;16.80;;;18.00;99.90;;;;;;4996405;28;20224;-73
2023/09/28 07:39:30;;;;;;;27.27;17.20;;;18.20;99.90;;;;;;4995232;28;20255;-72
2023/09/28 07:42:19;;;;;;;27.60;17.20;;;18.30;99.90;;;;;;4984778;28;20841;-72
2023/09/28 07:45:11;;;;;;;26.27;17.17;;;18.40;99.90;;;;;;4984463;28;20227;-73
2023/09/28 07:48:00;;;;;;;28.67;16.63;;;18.70;99.90;;;;;;4989827;28;20773;-73
2023/09/28 07:50:50;;;;;;;19.40;16.33;;;19.10;99.90;;;;;;4998880;28;20690;-73
2023/09/28 07:53:40;;;;;;;40.45;16.75;;;19.50;99.90;;;;;;4980648;28;20676;-75
2023/09/28 07:56:29;;;;;;;25.90;15.65;;;19.90;99.90;;;;;;4999080;28;20322;-75
2023/09/28 07:59:18;;;;;;;26.02;16.58;;;20.50;99.90;;;;;;4991360;28;20230;-75
2023/09/28 08:02:09;;;;;;;21.30;15.38;;;20.90;99.90;;;;;;4991916;28;20227;-74
2023/09/28 08:04:58;;;;;;;18.33;15.15;;;21.20;99.90;;;;;;4979323;28;20243;-74
2023/09/28 08:07:48;;;;;;;22.70;15.20;;;21.30;99.90;;;;;;4976630;28;20227;-74
2023/09/28 08:10:57;;;;;;;25.33;15.43;;;21.60;99.90;;;;;;4978028;28;20236;-74
2023/09/28 08:13:46;;;;;;;20.45;15.20;;;22.00;99.90;;;;;;4978933;28;20318;-75
2023/09/28 08:16:35;;;;;;;24.75;15.80;;;22.40;99.90;;;;;;4975994;28;20381;-74
2023/09/28 08:19:24;;;;;;;24.35;14.52;;;22.20;99.90;;;;;;4987199;28;20705;-75
2023/09/28 08:22:17;;;;;;;22.15;15.52;;;22.40;99.90;;;;;;5002534;28;20229;-75
2023/09/28 08:25:10;;;;;;;29.42;14.55;;;23.10;99.90;;;;;;5004234;28;20857;-75
2023/09/28 08:28:00;;;;;;;84.40;18.20;;;23.60;99.90;;;;;;5010952;28;20656;-76
2023/09/28 08:30:49;;;;;;;24.90;14.15;;;24.00;99.90;;;;;;5000180;28;20717;-75
2023/09/28 08:33:39;;;;;;;20.83;13.73;;;24.10;99.90;;;;;;4991609;28;20653;-75
2023/09/28 08:36:29;;;;;;;20.25;13.93;;;24.70;99.90;;;;;;4999936;28;21007;-74
2023/09/28 08:39:18;;;;;;;23.17;13.45;;;24.80;99.90;;;;;;4999522;28;20257;-75
2023/09/28 08:42:12;;;;;;;24.92;13.48;;;25.20;99.90;;;;;;5000787;28;20230;-73
2023/09/28 08:45:03;;;;;;;16.80;13.20;;;25.60;99.90;;;;;;5001964;28;20398;-75
2023/09/28 08:47:53;;;;;;;19.20;13.55;;;25.80;99.90;;;;;;5000799;28;20222;-75
2023/09/28 08:50:44;;;;;;;20.42;13.02;;;25.90;99.90;;;;;;4994911;28;20225;-75
2023/09/28 08:53:34;;;;;;;21.10;12.50;;;25.70;99.90;;;;;;4992241;28;20231;-75
2023/09/28 08:56:23;;;;;;;19.70;12.88;;;25.70;99.90;;;;;;4989730;28;20303;-75
2023/09/28 08:59:13;;;;;;;16.38;12.60;;;25.60;99.90;;;;;;4990334;28;20358;-75
2023/09/28 09:02:06;;;;;;;21.38;13.23;;;24.60;99.90;;;;;;4978428;28;20694;-75
2023/09/28 09:04:55;;;;;;;17.40;12.90;;;23.90;99.90;;;;;;4996472;28;20222;-75
2023/09/28 09:07:44;;;;;;;23.95;13.32;;;23.40;99.90;;;;;;4976265;28;20222;-76
2023/09/28 09:10:33;;;;;;;21.52;13.25;;;22.90;99.90;;;;;;4999120;28;20757;-75
2023/09/28 09:13:22;;;;;;;18.67;12.32;;;22.50;99.90;;;;;;4990445;28;20258;-76
2023/09/28 09:16:12;;;;;;;17.08;11.20;;;22.30;99.90;;;;;;4977708;28;20231;-75
2023/09/28 09:19:02;;;;;;;16.45;11.50;;;22.30;99.90;;;;;;4991743;28;20234;-74
2023/09/28 09:21:51;;;;;;;15.50;10.63;;;22.10;99.90;;;;;;4977340;28;20223;-75
2023/09/28 09:24:54;;;;;;;16.90;11.25;;;22.20;99.90;;;;;;4989137;28;20233;-75
2023/09/28 09:27:45;;;;;;;16.20;10.88;;;22.20;99.90;;;;;;4996888;28;20830;-75
2023/09/28 09:30:36;;;;;;;22.35;11.73;;;22.10;99.90;;;;;;4987505;28;20237;-75
2023/09/28 09:33:25;;;;;;;20.20;11.73;;;22.00;99.90;;;;;;4990180;28;20222;-75
2023/09/28 09:36:18;;;;;;;19.15;11.88;;;21.90;99.90;;;;;;5007049;28;20237;-74
2023/09/28 09:39:08;;;;;;;22.33;11.02;;;21.90;99.90;;;;;;4992273;28;20241;-75
2023/09/28 09:41:58;;;;;;;15.63;10.82;;;21.90;99.90;;;;;;5009095;28;20365;-75
2023/09/28 09:44:49;;;;;;;18.80;10.63;;;21.90;99.90;;;;;;4991429;28;20249;-74
2023/09/28 09:47:44;;;;;;;18.13;10.63;;;22.00;99.90;;;;;;4998471;28;20214;-76
2023/09/28 09:50:35;;;;;;;15.73;10.27;;;21.90;99.90;;;;;;5003925;28;20230;-75
2023/09/28 09:53:27;;;;;;;17.08;10.60;;;22.00;99.90;;;;;;4979521;28;20227;-76
2023/09/28 09:56:17;;;;;;;19.55;10.27;;;22.00;99.90;;;;;;4982868;28;20568;-75
2023/09/28 09:59:07;;;;;;;21.88;11.57;;;22.10;99.90;;;;;;4978852;28;20732;-74
2023/09/28 10:01:57;;;;;;;20.38;10.25;;;22.10;99.90;;;;;;4976057;28;20228;-73
2023/09/28 10:04:47;;;;;;;17.15;10.50;;;22.10;99.90;;;;;;4973221;28;20239;-75
2023/09/28 10:07:39;;;;;;;17.42;10.18;;;22.10;99.90;;;;;;4975527;28;20227;-74
2023/09/28 10:10:34;;;;;;;19.70;10.15;;;22.30;99.90;;;;;;4973472;28;20757;-75
2023/09/28 10:13:23;;;;;;;16.00;9.88;;;22.30;99.90;;;;;;4977869;28;20215;-75
2023/09/28 10:16:13;;;;;;;17.70;9.80;;;22.20;99.90;;;;;;4987234;28;20273;-73
2023/09/28 10:19:28;;;;;;;15.10;9.27;;;22.20;99.90;;;;;;4983879;28;20227;-74
2023/09/28 10:22:17;;;;;;;15.10;8.50;;;22.30;99.90;;;;;;4978176;28;20231;-75
2023/09/28 10:25:07;;;;;;;14.40;9.52;;;22.30;99.90;;;;;;4981744;28;20227;-75
2023/09/28 10:28:00;;;;;;;23.08;9.25;;;22.40;99.90;;;;;;4977196;28;20238;-76
2023/09/28 10:31:01;;;;;;;13.57;8.43;;;22.50;99.90;;;;;;4976130;28;20285;-75
2023/09/28 10:34:00;;;;;;;15.80;8.32;;;22.50;99.90;;;;;;4974772;28;20863;-76
2023/09/28 10:37:19;;;;;;;16.65;9.02;;;22.50;99.90;;;;;;4977719;28;20234;-76
2023/09/28 10:40:10;;;;;;;11.95;8.10;;;22.50;99.90;;;;;;4990810;28;20226;-75
2023/09/28 10:43:09;;;;;;;12.88;7.97;;;22.60;99.90;;;;;;4989364;28;20303;-75
2023/09/28 10:46:02;;;;;;;13.77;8.13;;;22.60;99.90;;;;;;4977472;28;21054;-75
2023/09/28 10:48:58;;;;;;;16.15;8.82;;;22.60;99.90;;;;;;4983584;28;20253;-75
2023/09/28 10:51:47;;;;;;;17.35;8.35;;;22.80;99.90;;;;;;4990281;28;20282;-76
2023/09/28 10:54:38;;;;;;;16.67;8.20;;;22.90;99.90;;;;;;4981509;28;20225;-73
2023/09/28 10:57:31;;;;;;;13.32;8.80;;;22.90;99.90;;;;;;4982868;28;20309;-74
2023/09/28 11:00:24;;;;;;;17.77;8.13;;;22.90;99.90;;;;;;4984116;28;20309;-75
2023/09/28 11:03:12;;;;;;;15.55;8.30;;;23.00;99.90;;;;;;4978667;28;20227;-74
2023/09/28 11:06:02;;;;;;;18.05;8.32;;;23.00;99.90;;;;;;4985378;28;20338;-74
2023/09/28 11:08:52;;;;;;;14.65;8.93;;;23.00;99.90;;;;;;4995621;28;20301;-73
2023/09/28 11:11:41;;;;;;;13.23;7.75;;;23.00;99.90;;;;;;4995771;28;20230;-73
2023/09/28 11:14:32;;;;;;;10.15;7.80;;;23.10;99.90;;;;;;4991057;28;20256;-73
2023/09/28 11:17:24;;;;;;;12.30;7.93;;;23.20;99.90;;;;;;4996870;28;20824;-73
2023/09/28 11:20:14;;;;;;;14.60;7.55;;;23.20;99.90;;;;;;4977605;28;20218;-73
2023/09/28 11:23:04;;;;;;;14.10;7.47;;;23.30;99.90;;;;;;4979352;28;20301;-72
2023/09/28 11:25:54;;;;;;;11.73;7.35;;;23.30;99.90;;;;;;4987538;28;20231;-72
2023/09/28 11:28:44;;;;;;;11.90;6.95;;;23.20;99.90;;;;;;4983635;28;20218;-74
2023/09/28 11:31:35;;;;;;;18.83;8.27;;;23.30;99.90;;;;;;4988925;28;20238;-73
2023/09/28 11:34:33;;;;;;;11.70;7.32;;;23.30;99.90;;;;;;5005885;28;20233;-74
2023/09/28 11:37:24;;;;;;;12.68;6.78;;;23.50;99.90;;;;;;5004810;28;20218;-74
2023/09/28 11:40:13;;;;;;;11.68;7.30;;;23.50;99.90;;;;;;5000360;28;20230;-73
2023/09/28 11:43:02;;;;;;;13.98;7.20;;;23.40;99.90;;;;;;4997654;28;20280;-74
2023/09/28 11:45:51;;;;;;;14.57;7.32;;;23.60;99.90;;;;;;5015008;28;20704;-74
2023/09/28 11:48:40;;;;;;;18.05;7.30;;;23.50;99.90;;;;;;4996029;28;20222;-73
2023/09/28 11:51:31;;;;;;;11.60;7.00;;;23.50;99.90;;;;;;5013003;28;20579;-72
2023/09/28 11:54:22;;;;;;;11.35;7.15;;;23.60;99.90;;;;;;4995592;28;20234;-73
2023/09/28 11:57:11;;;;;;;14.43;7.95;;;23.60;99.90;;;;;;4994957;28;20233;-73
2023/09/28 12:00:01;;;;;;;12.20;6.82;;;23.60;99.90;;;;;;5007943;28;20223;-73
2023/09/28 12:02:52;;;;;;;10.23;6.38;;;23.80;99.90;;;;;;4995874;28;20220;-73
2023/09/28 12:05:41;;;;;;;8.48;6.75;;;23.80;99.90;;;;;;5006071;28;20219;-72
2023/09/28 12:08:32;;;;;;;11.18;6.40;;;23.80;99.90;;;;;;5008857;28;20227;-73
2023/09/28 12:11:21;;;;;;;13.40;6.30;;;23.80;99.90;;;;;;4992249;28;20249;-73
2023/09/28 12:14:10;;;;;;;12.35;6.05;;;23.80;99.90;;;;;;4997567;28;20338;-73
2023/09/28 12:16:59;;;;;;;12.05;5.68;;;23.70;99.90;;;;;;5000932;28;20365;-72
2023/09/28 12:19:48;;;;;;;14.07;5.93;;;23.80;99.90;;;;;;5006681;28;20709;-72
2023/09/28 12:22:37;;;;;;;12.80;5.93;;;23.80;99.90;;;;;;4997330;28;20326;-72
2023/09/28 12:25:28;;;;;;;10.27;5.93;;;23.90;99.90;;;;;;5000039;28;20256;-74
2023/09/28 12:28:17;;;;;;;11.57;5.82;;;24.00;96.30;;;;;;5003830;28;20230;-74
2023/09/28 12:31:07;;;;;;;12.15;5.88;;;23.90;98.70;;;;;;5011867;28;20233;-74
2023/09/28 12:33:56;;;;;;;10.15;5.25;;;24.00;99.60;;;;;;4995882;28;20226;-74
2023/09/28 12:36:45;;;;;;;9.05;6.38;;;24.10;97.70;;;;;;5007956;28;20229;-75
2023/09/28 12:39:35;;;;;;;11.85;6.07;;;24.00;96.40;;;;;;4992090;28;20226;-73
2023/09/28 12:42:26;;;;;;;12.82;6.68;;;24.10;98.40;;;;;;4998713;28;20241;-74
2023/09/28 12:45:15;;;;;;;10.77;6.25;;;24.10;99.90;;;;;;4988727;28;20223;-72
2023/09/28 12:48:06;;;;;;;13.90;7.55;;;24.00;99.90;;;;;;4997512;28;20229;-72
2023/09/28 12:50:55;;;;;;;10.48;6.47;;;23.80;99.90;;;;;;5004206;28;20226;-71
2023/09/28 12:53:44;;;;;;;9.82;6.70;;;23.80;99.90;;;;;;5009514;28;20210;-72
2023/09/28 12:56:33;;;;;;;11.40;6.93;;;23.80;99.90;;;;;;4995598;28;20230;-73
2023/09/28 12:59:24;;;;;;;9.77;7.07;;;23.70;99.90;;;;;;5003968;28;20299;-73
2023/09/28 13:02:13;;;;;;;12.60;7.28;;;23.90;99.90;;;;;;5008679;28;20223;-74
2023/09/28 13:05:04;;;;;;;13.63;8.00;;;23.80;99.90;;;;;;5009739;28;20222;-74
2023/09/28 13:07:53;;;;;;;14.55;7.75;;;23.80;99.90;;;;;;4994779;28;20234;-74
2023/09/28 13:10:42;;;;;;;12.05;7.78;;;23.70;99.90;;;;;;4994118;28;20256;-75
2023/09/28 13:13:31;;;;;;;12.55;8.00;;;23.80;99.90;;;;;;5014551;28;20751;-73
2023/09/28 13:16:24;;;;;;;14.10;7.45;;;23.90;99.90;;;;;;4997224;28;20257;-73
2023/09/28 13:19:16;;;;;;;14.10;7.57;;;23.90;99.90;;;;;;4996768;28;20222;-75
2023/09/28 13:22:05;;;;;;;12.85;8.20;;;23.80;99.90;;;;;;5009880;28;20218;-72
2023/09/28 13:24:54;;;;;;;16.85;8.27;;;23.70;99.90;;;;;;5013563;28;20280;-74
2023/09/28 13:27:43;;;;;;;31.27;9.38;;;23.80;99.90;;;;;;5009118;28;20281;-78
2023/09/28 13:30:38;;;;;;;15.05;8.35;;;23.80;99.90;;;;;;4996853;28;20238;-73
2023/09/28 13:33:29;;;;;;;14.35;8.48;;;23.90;99.90;;;;;;4994753;28;20229;-74
2023/09/28 13:36:19;;;;;;;13.82;7.90;;;24.00;99.90;;;;;;5006304;28;20783;-74
2023/09/28 13:39:26;;;;;;;12.93;7.47;;;24.00;99.90;;;;;;4990674;28;20376;-75
2023/09/28 13:42:15;;;;;;;14.27;8.02;;;24.00;99.90;;;;;;4992717;28;20226;-73
2023/09/28 13:45:04;;;;;;;15.60;7.70;;;24.00;99.90;;;;;;5003849;28;20249;-75
2023/09/28 13:47:55;;;;;;;14.23;7.63;;;24.00;99.90;;;;;;4991273;28;20718;-75
2023/09/28 13:50:47;;;;;;;13.70;7.85;;;24.10;99.90;;;;;;4991492;28;20222;-75
2023/09/28 13:53:37;;;;;;;11.85;7.70;;;24.00;99.90;;;;;;5002345;28;20241;-72
2023/09/28 13:56:26;;;;;;;11.43;7.53;;;23.90;99.90;;;;;;4997151;28;20876;-73
2023/09/28 13:59:15;;;;;;;14.45;8.05;;;23.90;99.90;;;;;;4994679;28;20226;-75
2023/09/28 14:02:04;;;;;;;12.98;7.60;;;24.00;99.90;;;;;;4994204;28;20365;-75
2023/09/28 14:04:55;;;;;;;15.73;7.97;;;24.10;99.90;;;;;;4994036;28;20222;-73
2023/09/28 14:07:45;;;;;;;12.30;7.45;;;24.10;99.90;;;;;;5011726;28;20325;-74
2023/09/28 14:10:34;;;;;;;17.58;7.55;;;24.00;99.90;;;;;;5002966;28;20225;-74
2023/09/28 14:13:24;;;;;;;10.05;7.32;;;23.90;99.90;;;;;;5001273;28;20232;-73
2023/09/28 14:16:13;;;;;;;15.32;7.88;;;23.80;99.90;;;;;;5000345;28;22224;-73
2023/09/28 14:19:02;;;;;;;17.30;8.55;;;23.80;99.90;;;;;;5007340;28;22220;-73
2023/09/28 14:21:52;;;;;;;12.52;7.65;;;23.80;99.90;;;;;;4997047;28;20264;-73
2023/09/28 14:24:42;;;;;;;18.05;8.13;;;23.70;99.90;;;;;;4999643;28;20214;-75
2023/09/28 14:27:35;;;;;;;12.90;7.95;;;23.80;99.90;;;;;;4992823;28;20221;-75